createdAt,value
2023-04-24T00:04:00.805Z,10.48
2023-04-24T00:09:06.085Z,10.54
2023-04-24T00:14:09.990Z,10.54
2023-04-24T00:19:15.471Z,10.56
2023-04-24T00:24:19.641Z,10.57
2023-04-24T00:29:23.878Z,10.58
2023-04-24T00:34:29.330Z,10.56
2023-04-24T00:39:33.844Z,10.53
2023-04-24T00:44:37.913Z,10.48
2023-04-24T00:49:43.721Z,10.46
2023-04-24T00:54:47.917Z,10.43
2023-04-24T00:59:53.377Z,10.36
2023-04-24T01:04:59.020Z,10.41
2023-04-24T01:10:03.633Z,10.39
2023-04-24T01:15:09.043Z,10.32
2023-04-24T01:20:14.801Z,10.25
2023-04-24T01:25:20.518Z,10.19
2023-04-24T01:30:24.738Z,10.13
2023-04-24T01:35:29.144Z,10.13
2023-04-24T01:40:34.881Z,10.09
2023-04-24T01:45:39.096Z,10.02
2023-04-24T01:50:43.321Z,9.93
2023-04-24T01:55:50.936Z,9.88
2023-04-24T02:00:55.095Z,9.87
2023-04-24T02:05:58.951Z,9.80
2023-04-24T02:11:04.196Z,9.69
2023-04-24T02:16:09.443Z,9.64
2023-04-24T02:21:13.521Z,9.56
2023-04-24T02:26:19.257Z,9.45
2023-04-24T02:31:23.516Z,9.38
2023-04-24T02:36:27.562Z,9.33
2023-04-24T02:41:33.864Z,9.30
2023-04-24T02:46:38.200Z,9.33
2023-04-24T02:51:42.875Z,9.31
2023-04-24T02:56:48.270Z,9.29
2023-04-24T03:01:52.354Z,9.25
2023-04-24T03:06:57.469Z,9.30
2023-04-24T03:12:03.085Z,9.32
2023-04-24T03:17:08.342Z,9.28
2023-04-24T03:22:12.598Z,9.26
2023-04-24T03:27:19.333Z,9.22
2023-04-24T03:32:52.213Z,9.21
2023-04-24T03:38:01.498Z,9.20
2023-04-24T03:43:19.740Z,9.15
2023-04-24T03:48:24.375Z,9.18
2023-04-24T03:53:28.930Z,9.15
2023-04-24T03:58:35.378Z,9.12
2023-04-24T04:03:40.146Z,9.14
2023-04-24T04:08:44.724Z,9.28
2023-04-24T04:13:50.184Z,9.36
2023-04-24T04:18:57.465Z,9.44
2023-04-24T04:24:02.996Z,9.54
2023-04-24T04:29:13.279Z,9.58
2023-04-24T04:34:20.933Z,9.66
2023-04-24T04:39:25.101Z,9.69
2023-04-24T04:44:51.548Z,9.74
2023-04-24T04:50:00.672Z,9.77
2023-04-24T04:55:06.464Z,9.77
2023-04-24T05:00:44.224Z,9.79
2023-04-24T05:05:54.791Z,9.83
2023-04-24T05:10:59.049Z,9.88
2023-04-24T05:16:06.768Z,10.02
2023-04-24T05:21:11.982Z,10.13
2023-04-24T05:26:18.825Z,10.33
2023-04-24T05:31:24.319Z,10.49
2023-04-24T05:36:29.163Z,10.73
2023-04-24T05:41:33.269Z,11.01
2023-04-24T05:46:39.243Z,11.30
2023-04-24T05:51:43.618Z,11.62
2023-04-24T05:56:47.748Z,11.94
2023-04-24T06:02:00.211Z,12.29
2023-04-24T06:07:04.179Z,12.64
2023-04-24T06:12:09.923Z,12.95
2023-04-24T06:17:29.179Z,13.26
2023-04-24T06:22:33.469Z,13.52
2023-04-24T06:27:37.303Z,13.81
2023-04-24T06:32:43.465Z,14.11
2023-04-24T06:37:48.230Z,14.40
2023-04-24T06:42:52.109Z,14.69
2023-04-24T06:47:57.551Z,14.95
2023-04-24T06:53:01.607Z,15.20
2023-04-24T06:58:07.082Z,15.43
2023-04-24T07:03:12.603Z,15.67
2023-04-24T07:08:18.047Z,15.87
2023-04-24T07:13:21.862Z,16.13
2023-04-24T07:18:27.141Z,16.37
2023-04-24T07:23:31.911Z,16.57
2023-04-24T07:28:36.185Z,16.77
2023-04-24T07:33:41.926Z,17.02
2023-04-24T07:38:45.978Z,17.25
2023-04-24T07:43:50.066Z,17.48
2023-04-24T07:49:09.269Z,17.62
2023-04-24T07:54:16.341Z,17.79
2023-04-24T07:59:20.597Z,17.99
2023-04-24T08:04:25.915Z,18.11
2023-04-24T08:09:29.973Z,18.17
2023-04-24T08:14:33.820Z,18.27
2023-04-24T08:19:39.060Z,18.35
2023-04-24T08:24:43.292Z,18.45
2023-04-24T08:29:47.177Z,18.67
2023-04-24T08:34:53.748Z,18.88
2023-04-24T08:39:57.869Z,18.98
2023-04-24T08:45:02.044Z,19.04
2023-04-24T08:50:09.083Z,19.34
2023-04-24T08:55:13.117Z,19.51
2023-04-24T09:00:18.112Z,19.66
2023-04-24T09:05:27.063Z,19.68
2023-04-24T09:10:32.650Z,19.74
2023-04-24T09:15:37.008Z,19.83
2023-04-24T09:21:03.885Z,19.68
2023-04-24T09:26:07.918Z,19.85
2023-04-24T09:31:15.073Z,19.99
2023-04-24T09:36:21.160Z,19.92
2023-04-24T09:41:25.123Z,20.41
2023-04-24T09:46:34.214Z,20.68
2023-04-24T09:51:40.808Z,20.61
2023-04-24T09:56:46.826Z,20.70
2023-04-24T10:01:51.900Z,21.17
2023-04-24T10:06:59.096Z,21.42
2023-04-24T10:12:04.441Z,21.36
2023-04-24T10:17:08.930Z,21.85
2023-04-24T10:22:15.096Z,22.05
2023-04-24T10:27:19.129Z,22.21
2023-04-24T10:32:23.687Z,22.51
2023-04-24T10:37:29.438Z,22.33
2023-04-24T10:42:33.600Z,22.27
2023-04-24T10:47:42.663Z,22.41
2023-04-24T10:52:48.565Z,22.53
2023-04-24T10:58:05.747Z,22.80
2023-04-24T11:03:24.544Z,23.03
2023-04-24T11:08:38.481Z,23.16
2023-04-24T11:14:06.463Z,23.17
2023-04-24T11:19:12.219Z,23.50
2023-04-24T11:24:32.953Z,23.56
2023-04-24T11:30:02.266Z,23.37
2023-04-24T11:35:10.953Z,23.54
2023-04-24T11:40:17.549Z,23.69
2023-04-24T11:45:24.280Z,23.67
2023-04-24T11:50:30.463Z,23.41
2023-04-24T11:55:36.705Z,23.34
2023-04-24T12:00:40.979Z,22.94
2023-04-24T12:05:46.181Z,22.86
2023-04-24T12:10:53.363Z,22.90
2023-04-24T12:15:58.865Z,22.61
2023-04-24T12:21:21.418Z,22.86
2023-04-24T12:26:30.115Z,22.07
2023-04-24T12:31:34.759Z,21.53
2023-04-24T12:36:38.801Z,21.33
2023-04-24T12:41:53.068Z,21.35
2023-04-24T12:46:57.088Z,21.31
2023-04-24T12:52:01.056Z,21.12
2023-04-24T12:57:06.696Z,20.63
2023-04-24T13:02:11.220Z,20.15
2023-04-24T13:07:16.024Z,19.74
2023-04-24T13:12:21.626Z,19.41
2023-04-24T13:17:25.723Z,19.08
2023-04-24T13:22:30.150Z,19.05
2023-04-24T13:27:35.693Z,18.71
2023-04-24T13:32:39.822Z,18.45
2023-04-24T13:37:43.960Z,18.42
2023-04-24T13:42:49.540Z,18.19
2023-04-24T13:47:54.876Z,18.11
2023-04-24T13:53:02.634Z,18.01
2023-04-24T13:58:08.591Z,17.68
2023-04-24T14:03:13.200Z,17.54
2023-04-24T14:08:17.483Z,17.44
2023-04-24T14:13:23.140Z,17.46
2023-04-24T14:18:28.138Z,17.44
2023-04-24T14:23:32.014Z,17.48
2023-04-24T14:28:37.591Z,17.38
2023-04-24T14:33:41.411Z,17.21
2023-04-24T14:38:45.739Z,17.00
2023-04-24T14:43:51.143Z,16.87
2023-04-24T14:48:54.967Z,16.82
2023-04-24T14:53:59.181Z,16.83
2023-04-24T14:59:05.267Z,16.88
2023-04-24T15:04:09.651Z,17.03
2023-04-24T15:09:13.809Z,17.19
2023-04-24T15:14:19.588Z,17.26
2023-04-24T15:19:23.426Z,17.15
2023-04-24T15:24:27.253Z,17.36
2023-04-24T15:29:32.465Z,17.51
2023-04-24T15:34:36.368Z,17.64
2023-04-24T15:39:40.313Z,17.74
2023-04-24T15:44:46.064Z,17.70
2023-04-24T15:49:50.386Z,17.49
2023-04-24T15:54:54.234Z,17.35
2023-04-24T15:59:59.608Z,17.39
2023-04-24T16:05:04.429Z,17.37
2023-04-24T16:10:09.265Z,17.11
2023-04-24T16:15:14.503Z,17.02
2023-04-24T16:20:18.639Z,16.70
2023-04-24T16:25:22.828Z,16.66
2023-04-24T16:30:28.328Z,16.57
2023-04-24T16:35:32.366Z,16.36
2023-04-24T16:40:36.227Z,16.31
2023-04-24T16:45:41.641Z,16.16
2023-04-24T16:50:46.219Z,16.02
2023-04-24T16:55:51.300Z,15.99
2023-04-24T17:00:57.096Z,15.71
2023-04-24T17:06:01.143Z,15.45
2023-04-24T17:11:05.099Z,15.34
2023-04-24T17:16:10.963Z,15.17
2023-04-24T17:21:15.092Z,15.05
2023-04-24T17:26:19.392Z,14.91
2023-04-24T17:31:25.269Z,14.76
2023-04-24T17:36:29.332Z,14.68
2023-04-24T17:41:33.450Z,14.53
2023-04-24T17:46:38.902Z,14.42
2023-04-24T17:51:43.167Z,14.29
2023-04-24T17:56:47.453Z,14.18
2023-04-24T18:01:53.947Z,14.12
2023-04-24T18:06:59.705Z,14.06
2023-04-24T18:12:04.350Z,14.04
2023-04-24T18:17:09.705Z,13.95
2023-04-24T18:22:13.712Z,13.90
2023-04-24T18:27:17.731Z,13.81
2023-04-24T18:32:23.117Z,13.85
2023-04-24T18:37:27.454Z,13.78
2023-04-24T18:42:31.705Z,13.69
2023-04-24T18:47:37.006Z,13.56
2023-04-24T18:52:40.960Z,13.40
2023-04-24T18:57:44.779Z,13.31
2023-04-24T19:02:50.658Z,13.21
2023-04-24T19:07:54.612Z,13.01
2023-04-24T19:12:58.547Z,12.98
2023-04-24T19:18:03.941Z,12.96
2023-04-24T19:23:08.544Z,12.84
2023-04-24T19:28:12.409Z,12.76
2023-04-24T19:33:17.947Z,12.71
2023-04-24T19:38:22.870Z,12.74
2023-04-24T19:43:26.878Z,12.74
2023-04-24T19:48:32.791Z,12.75
2023-04-24T19:53:36.660Z,12.70
2023-04-24T19:58:40.873Z,12.69
2023-04-24T20:03:46.795Z,12.67
2023-04-24T20:08:51.135Z,12.67
2023-04-24T20:13:56.479Z,12.59
2023-04-24T20:19:02.025Z,12.53
2023-04-24T20:24:08.723Z,12.43
2023-04-24T20:29:13.979Z,12.36
2023-04-24T20:34:19.432Z,12.29
2023-04-24T20:39:23.449Z,12.26
2023-04-24T20:44:27.476Z,12.11
2023-04-24T20:49:33.229Z,12.07
2023-04-24T20:54:37.096Z,12.02
2023-04-24T20:59:40.983Z,11.95
2023-04-24T21:04:46.577Z,11.92
2023-04-24T21:09:51.357Z,11.87
2023-04-24T21:14:55.634Z,11.82
2023-04-24T21:20:00.894Z,11.77
2023-04-24T21:25:05.118Z,11.65
2023-04-24T21:30:10.252Z,11.54
2023-04-24T21:35:15.395Z,11.53
2023-04-24T21:40:19.720Z,11.35
2023-04-24T21:45:23.590Z,11.23
2023-04-24T21:50:29.456Z,11.17
2023-04-24T21:55:33.593Z,11.00
2023-04-24T22:00:37.490Z,10.94
2023-04-24T22:05:42.990Z,10.85
2023-04-24T22:10:46.809Z,10.74
2023-04-24T22:15:51.657Z,10.60
2023-04-24T22:20:57.280Z,10.57
2023-04-24T22:26:01.652Z,10.56
2023-04-24T22:31:06.157Z,10.46
2023-04-24T22:36:11.872Z,10.48
2023-04-24T22:41:16.105Z,10.49
2023-04-24T22:46:20.334Z,10.45
2023-04-24T22:51:26.065Z,10.45
2023-04-24T22:56:31.732Z,10.48
2023-04-24T23:01:35.569Z,10.49
2023-04-24T23:06:41.455Z,10.44
2023-04-24T23:11:45.973Z,10.41
2023-04-24T23:16:50.277Z,10.36
2023-04-24T23:21:56.055Z,10.29
2023-04-24T23:27:00.129Z,10.32
2023-04-24T23:32:04.163Z,10.28
2023-04-24T23:37:09.564Z,10.33
2023-04-24T23:42:13.558Z,10.36
2023-04-24T23:47:17.416Z,10.31
2023-04-24T23:52:22.758Z,10.25
2023-04-24T23:57:26.812Z,10.29
